createdAt,value
2023-05-10T00:02:27.636Z,2.10
2023-05-10T00:04:54.766Z,2.30
2023-05-10T00:07:21.807Z,2.00
2023-05-10T00:09:48.853Z,2.40
2023-05-10T00:12:15.828Z,2.70
2023-05-10T00:14:43.497Z,2.30
2023-05-10T00:17:10.467Z,2.30
2023-05-10T00:19:37.541Z,2.40
2023-05-10T00:22:04.575Z,2.20
2023-05-10T00:24:31.692Z,2.10
2023-05-10T00:26:58.784Z,2.20
2023-05-10T00:29:25.977Z,2.60
2023-05-10T00:31:53.649Z,2.20
2023-05-10T00:34:20.789Z,2.10
2023-05-10T00:36:47.890Z,2.30
2023-05-10T00:39:15.061Z,2.10
2023-05-10T00:41:42.040Z,2.00
2023-05-10T00:44:09.220Z,2.40
2023-05-10T00:46:36.336Z,2.80
2023-05-10T00:49:03.418Z,2.40
2023-05-10T00:51:30.658Z,2.60
2023-05-10T00:53:57.751Z,2.50
2023-05-10T00:56:25.824Z,2.90
2023-05-10T00:58:52.924Z,2.40
2023-05-10T01:01:20.770Z,2.50
2023-05-10T01:03:48.491Z,2.40
2023-05-10T01:06:16.220Z,3.00
2023-05-10T01:08:43.222Z,2.80
2023-05-10T01:11:10.696Z,2.20
2023-05-10T01:13:39.301Z,2.50
2023-05-10T01:16:07.917Z,2.40
2023-05-10T01:18:40.784Z,3.00
2023-05-10T01:21:34.129Z,2.90
2023-05-10T01:24:04.106Z,2.60
2023-05-10T01:26:52.893Z,2.70
2023-05-10T01:29:45.004Z,3.00
2023-05-10T01:32:31.139Z,3.00
2023-05-10T01:35:04.171Z,2.70
2023-05-10T01:37:52.236Z,2.60
2023-05-10T01:40:48.748Z,2.70
2023-05-10T01:43:28.060Z,3.00
2023-05-10T01:46:13.682Z,3.00
2023-05-10T01:48:48.040Z,2.80
2023-05-10T01:51:20.684Z,2.90
2023-05-10T01:53:47.694Z,2.90
2023-05-10T01:56:16.914Z,2.60
2023-05-10T01:58:46.790Z,2.40
2023-05-10T02:01:14.374Z,2.60
2023-05-10T02:03:41.661Z,2.80
2023-05-10T02:06:08.781Z,3.30
2023-05-10T02:08:35.934Z,3.00
2023-05-10T02:11:04.885Z,2.70
2023-05-10T02:13:32.926Z,3.10
2023-05-10T02:15:59.897Z,3.20
2023-05-10T02:18:27.129Z,2.90
2023-05-10T02:20:54.527Z,3.10
2023-05-10T02:23:21.764Z,2.70
2023-05-10T02:25:49.254Z,3.10
2023-05-10T02:28:16.589Z,2.70
2023-05-10T02:30:43.606Z,2.90
2023-05-10T02:35:38.928Z,2.50
2023-05-10T02:38:06.079Z,2.70
2023-05-10T02:40:33.091Z,3.10
2023-05-10T02:43:00.415Z,3.40
2023-05-10T02:45:29.491Z,3.50
2023-05-10T02:47:57.059Z,3.10
2023-05-10T02:50:24.099Z,4.20
2023-05-10T02:52:53.148Z,3.40
2023-05-10T02:55:21.449Z,3.70
2023-05-10T02:58:02.628Z,3.40
2023-05-10T03:00:29.869Z,3.60
2023-05-10T03:02:57.054Z,4.30
2023-05-10T03:05:24.591Z,3.50
2023-05-10T03:07:52.632Z,4.00
2023-05-10T03:10:19.872Z,4.10
2023-05-10T03:13:16.441Z,3.90
2023-05-10T03:15:48.274Z,4.00
2023-05-10T03:18:23.691Z,4.00
2023-05-10T03:20:52.061Z,4.30
2023-05-10T03:23:19.261Z,4.50
2023-05-10T03:25:47.492Z,4.10
2023-05-10T03:28:14.753Z,4.00
2023-05-10T03:30:42.227Z,4.30
2023-05-10T03:33:11.991Z,3.70
2023-05-10T03:35:41.196Z,3.70
2023-05-10T03:38:08.488Z,3.70
2023-05-10T03:40:35.654Z,3.30
2023-05-10T03:43:02.707Z,3.70
2023-05-10T03:45:29.837Z,3.70
2023-05-10T03:47:57.915Z,3.40
2023-05-10T03:50:25.492Z,3.40
2023-05-10T03:52:54.770Z,3.50
2023-05-10T03:55:23.612Z,3.30
2023-05-10T03:57:51.480Z,3.20
2023-05-10T04:00:19.467Z,3.70
2023-05-10T04:02:48.183Z,3.40
2023-05-10T04:05:19.265Z,3.40
2023-05-10T04:07:46.310Z,3.60
2023-05-10T04:10:13.719Z,3.00
2023-05-10T04:12:41.109Z,3.10
2023-05-10T04:15:09.077Z,2.90
2023-05-10T04:20:03.154Z,2.80
2023-05-10T04:22:30.273Z,2.40
2023-05-10T04:24:57.411Z,3.10
2023-05-10T04:27:24.580Z,3.20
2023-05-10T04:29:52.035Z,2.60
2023-05-10T04:32:19.217Z,2.80
2023-05-10T04:34:46.238Z,3.20
2023-05-10T04:37:13.392Z,2.80
2023-05-10T04:39:42.278Z,3.10
2023-05-10T04:42:09.776Z,3.30
2023-05-10T04:44:37.388Z,3.20
2023-05-10T04:47:04.664Z,2.70
2023-05-10T04:49:31.842Z,3.10
2023-05-10T04:51:58.971Z,2.50
2023-05-10T04:54:26.209Z,2.60
2023-05-10T04:56:53.220Z,2.30
2023-05-10T04:59:20.247Z,2.20
2023-05-10T05:01:47.428Z,2.40
2023-05-10T05:04:15.649Z,2.40
2023-05-10T05:06:42.707Z,2.20
2023-05-10T05:09:11.345Z,2.60
2023-05-10T05:11:38.440Z,2.30
2023-05-10T05:14:05.791Z,2.10
2023-05-10T05:16:33.607Z,2.20
2023-05-10T05:19:01.812Z,2.30
2023-05-10T05:21:29.912Z,1.80
2023-05-10T05:23:56.963Z,2.10
2023-05-10T05:26:24.832Z,2.00
2023-05-10T05:31:22.159Z,2.40
2023-05-10T05:33:49.232Z,2.10
2023-05-10T05:36:16.653Z,2.20
2023-05-10T05:38:44.278Z,2.10
2023-05-10T05:41:11.426Z,1.90
2023-05-10T05:43:38.735Z,2.30
2023-05-10T05:46:06.189Z,2.20
2023-05-10T05:48:33.219Z,2.00
2023-05-10T05:51:00.337Z,2.10
2023-05-10T05:53:27.996Z,2.30
2023-05-10T05:55:55.902Z,2.10
2023-05-10T05:58:23.545Z,1.80
2023-05-10T06:00:50.914Z,1.70
2023-05-10T06:03:18.109Z,1.80
2023-05-10T06:05:45.462Z,1.90
2023-05-10T06:08:12.609Z,1.70
2023-05-10T06:10:40.022Z,1.90
2023-05-10T06:13:07.147Z,2.30
2023-05-10T06:15:34.563Z,1.90
2023-05-10T06:18:02.151Z,1.70
2023-05-10T06:20:29.307Z,2.20
2023-05-10T06:22:56.320Z,1.80
2023-05-10T06:25:23.472Z,1.90
2023-05-10T06:27:53.614Z,1.90
2023-05-10T06:30:24.200Z,1.90
2023-05-10T06:33:59.800Z,1.90
2023-05-10T06:36:27.694Z,1.60
2023-05-10T06:41:24.586Z,1.30
2023-05-10T06:43:51.980Z,1.90
2023-05-10T06:46:19.181Z,2.10
2023-05-10T06:48:46.408Z,1.70
2023-05-10T06:51:13.694Z,2.30
2023-05-10T06:53:40.816Z,1.90
2023-05-10T06:56:08.284Z,1.90
2023-05-10T06:58:35.275Z,1.50
2023-05-10T07:01:06.248Z,1.80
2023-05-10T07:03:33.422Z,1.70
2023-05-10T07:06:04.971Z,2.10
2023-05-10T07:08:32.735Z,2.00
2023-05-10T07:11:08.354Z,1.50
2023-05-10T07:13:35.745Z,2.00
2023-05-10T07:16:03.364Z,1.90
2023-05-10T07:18:30.663Z,1.80
2023-05-10T07:20:58.427Z,1.50
2023-05-10T07:23:25.621Z,1.80
2023-05-10T07:25:53.684Z,1.90
2023-05-10T07:28:21.312Z,1.80
2023-05-10T07:30:48.441Z,2.20
2023-05-10T07:33:15.830Z,1.60
2023-05-10T07:35:43.563Z,1.50
2023-05-10T07:38:12.241Z,1.80
2023-05-10T07:40:40.517Z,1.40
2023-05-10T07:43:07.627Z,1.40
2023-05-10T07:45:35.166Z,1.90
2023-05-10T07:48:02.296Z,1.50
2023-05-10T07:50:29.873Z,1.70
2023-05-10T07:52:57.657Z,1.60
2023-05-10T07:55:24.812Z,1.40
2023-05-10T07:57:51.908Z,1.40
2023-05-10T08:00:19.497Z,1.20
2023-05-10T08:02:46.991Z,1.30
2023-05-10T08:05:14.850Z,1.40
2023-05-10T08:10:09.970Z,1.30
2023-05-10T08:12:37.036Z,1.10
2023-05-10T08:15:04.748Z,1.20
2023-05-10T08:17:32.120Z,1.30
2023-05-10T08:19:59.150Z,1.00
2023-05-10T08:22:26.117Z,1.50
2023-05-10T08:24:53.476Z,1.40
2023-05-10T08:27:20.766Z,1.00
2023-05-10T08:29:50.343Z,1.00
2023-05-10T08:32:18.574Z,1.50
2023-05-10T08:37:14.498Z,1.30
2023-05-10T08:39:42.249Z,1.30
2023-05-10T08:42:09.530Z,1.50
2023-05-10T08:44:37.579Z,1.40
2023-05-10T08:47:06.975Z,1.40
2023-05-10T08:49:34.756Z,1.30
2023-05-10T08:52:05.159Z,1.50
2023-05-10T08:54:33.423Z,1.40
2023-05-10T08:57:00.900Z,1.30
2023-05-10T08:59:32.184Z,1.80
2023-05-10T09:02:00.187Z,1.60
2023-05-10T09:06:55.065Z,1.40
2023-05-10T09:09:22.366Z,1.40
2023-05-10T09:11:49.395Z,1.60
2023-05-10T09:14:16.439Z,1.50
2023-05-10T09:16:43.902Z,1.40
2023-05-10T09:19:11.560Z,1.20
2023-05-10T09:21:39.484Z,1.50
2023-05-10T09:24:08.236Z,1.20
2023-05-10T09:26:36.805Z,1.20
2023-05-10T09:29:04.175Z,1.20
2023-05-10T09:31:56.062Z,1.00
2023-05-10T09:34:33.439Z,1.40
2023-05-10T09:37:02.594Z,1.40
2023-05-10T09:39:38.902Z,1.50
2023-05-10T09:42:10.114Z,1.30
2023-05-10T09:44:38.028Z,1.30
2023-05-10T09:49:32.075Z,1.10
2023-05-10T09:52:06.679Z,1.30
2023-05-10T09:54:34.327Z,1.30
2023-05-10T09:57:02.027Z,1.30
2023-05-10T09:59:29.608Z,1.30
2023-05-10T10:01:57.737Z,1.50
2023-05-10T10:04:24.998Z,1.50
2023-05-10T10:07:04.952Z,1.20
2023-05-10T10:09:32.523Z,1.20
2023-05-10T10:12:01.122Z,1.30
2023-05-10T10:14:28.701Z,1.30
2023-05-10T10:17:06.675Z,1.20
2023-05-10T10:19:36.884Z,1.00
2023-05-10T10:22:04.455Z,1.30
2023-05-10T10:24:31.716Z,1.20
2023-05-10T10:27:11.178Z,1.10
2023-05-10T10:30:29.378Z,1.10
2023-05-10T10:33:27.961Z,1.30
2023-05-10T10:35:56.815Z,1.10
2023-05-10T10:38:24.028Z,1.20
2023-05-10T10:41:04.432Z,0.90
2023-05-10T10:43:31.696Z,1.10
2023-05-10T10:46:13.064Z,1.00
2023-05-10T10:48:40.431Z,1.20
2023-05-10T10:51:07.446Z,1.00
2023-05-10T10:53:34.929Z,0.90
2023-05-10T10:56:10.518Z,1.10
2023-05-10T10:58:39.090Z,0.90
2023-05-10T11:01:17.041Z,1.20
2023-05-10T11:06:43.882Z,0.80
2023-05-10T11:09:12.758Z,1.00
2023-05-10T11:11:53.385Z,1.00
2023-05-10T11:14:23.713Z,1.20
2023-05-10T11:16:50.940Z,1.00
2023-05-10T11:19:19.178Z,0.90
2023-05-10T11:25:47.869Z,1.20
2023-05-10T11:28:14.994Z,1.40
2023-05-10T11:30:42.936Z,1.40
2023-05-10T11:33:10.868Z,1.20
2023-05-10T11:35:41.068Z,1.10
2023-05-10T11:38:11.008Z,1.10
2023-05-10T11:43:07.212Z,0.80
2023-05-10T11:45:34.625Z,1.00
2023-05-10T11:48:01.945Z,1.00
2023-05-10T11:50:29.298Z,1.10
2023-05-10T11:52:57.404Z,1.10
2023-05-10T11:55:25.487Z,1.00
2023-05-10T11:57:55.962Z,1.50
2023-05-10T12:00:23.135Z,1.00
2023-05-10T12:02:50.513Z,1.10
2023-05-10T12:05:17.823Z,1.20
2023-05-10T12:07:44.905Z,0.90
2023-05-10T12:10:16.135Z,1.20
2023-05-10T12:12:48.542Z,1.00
2023-05-10T12:15:23.460Z,0.90
2023-05-10T12:17:51.308Z,1.10
2023-05-10T12:20:20.012Z,1.10
2023-05-10T12:22:48.804Z,0.90
2023-05-10T12:25:15.955Z,1.40
2023-05-10T12:30:37.141Z,1.30
2023-05-10T12:33:12.212Z,1.30
2023-05-10T12:35:47.705Z,1.20
2023-05-10T12:38:39.399Z,1.40
2023-05-10T12:41:08.120Z,1.30
2023-05-10T12:43:35.850Z,1.40
2023-05-10T12:46:10.300Z,1.20
2023-05-10T12:48:38.047Z,1.20
2023-05-10T12:51:06.107Z,1.10
2023-05-10T12:53:33.352Z,1.50
2023-05-10T12:56:00.587Z,1.20
2023-05-10T12:58:35.454Z,1.20
2023-05-10T13:01:03.659Z,1.40
2023-05-10T13:03:30.797Z,1.50
2023-05-10T13:05:58.178Z,1.20
2023-05-10T13:08:25.374Z,1.30
2023-05-10T13:10:52.333Z,1.30
2023-05-10T13:13:19.436Z,1.40
2023-05-10T13:15:46.630Z,1.30
2023-05-10T13:18:14.177Z,1.10
2023-05-10T13:20:41.373Z,1.10
2023-05-10T13:23:08.624Z,1.20
2023-05-10T13:25:35.887Z,1.30
2023-05-10T13:28:03.720Z,1.10
2023-05-10T13:32:58.053Z,1.20
2023-05-10T13:35:25.192Z,1.10
2023-05-10T13:37:54.543Z,1.30
2023-05-10T13:40:21.637Z,1.20
2023-05-10T13:42:48.841Z,1.20
2023-05-10T13:45:16.308Z,1.40
2023-05-10T13:47:43.487Z,1.30
2023-05-10T13:50:11.190Z,1.20
2023-05-10T13:52:38.700Z,2.00
2023-05-10T13:55:06.225Z,1.20
2023-05-10T13:57:35.570Z,1.20
2023-05-10T14:00:03.061Z,1.20
2023-05-10T14:02:35.137Z,1.30
2023-05-10T14:05:02.529Z,1.10
2023-05-10T14:07:29.769Z,1.40
2023-05-10T14:09:56.887Z,1.40
2023-05-10T14:12:23.928Z,1.40
2023-05-10T14:14:51.392Z,1.30
2023-05-10T14:17:18.545Z,1.30
2023-05-10T14:19:45.799Z,1.70
2023-05-10T14:22:12.916Z,1.60
2023-05-10T14:24:39.872Z,1.60
2023-05-10T14:27:07.173Z,1.50
2023-05-10T14:29:34.358Z,1.50
2023-05-10T14:32:01.566Z,1.30
2023-05-10T14:34:28.637Z,1.40
2023-05-10T14:36:56.305Z,1.20
2023-05-10T14:39:23.930Z,1.10
2023-05-10T14:41:52.546Z,1.30
2023-05-10T14:44:19.981Z,1.40
2023-05-10T14:46:46.941Z,1.50
2023-05-10T14:49:13.930Z,1.40
2023-05-10T14:51:41.054Z,1.10
2023-05-10T14:54:08.059Z,1.10
2023-05-10T14:56:35.207Z,1.30
2023-05-10T14:59:02.229Z,1.30
2023-05-10T15:01:29.772Z,1.10
2023-05-10T15:03:57.332Z,1.50
2023-05-10T15:06:28.104Z,1.60
2023-05-10T15:08:55.109Z,1.20
2023-05-10T15:11:22.623Z,1.20
2023-05-10T15:13:49.669Z,1.60
2023-05-10T15:16:16.714Z,1.60
2023-05-10T15:18:43.912Z,1.50
2023-05-10T15:21:11.259Z,1.10
2023-05-10T15:23:38.238Z,1.40
2023-05-10T15:26:05.222Z,1.30
2023-05-10T15:28:33.623Z,1.40
2023-05-10T15:31:01.621Z,1.20
2023-05-10T15:33:28.718Z,1.30
2023-05-10T15:35:55.972Z,1.20
2023-05-10T15:38:23.708Z,1.20
2023-05-10T15:40:50.686Z,1.50
2023-05-10T15:43:18.153Z,1.20
2023-05-10T15:45:45.416Z,0.90
2023-05-10T15:48:12.581Z,1.50
2023-05-10T15:50:41.572Z,1.30
2023-05-10T15:53:08.618Z,1.20
2023-05-10T15:55:35.898Z,1.40
2023-05-10T15:58:03.455Z,1.40
2023-05-10T16:00:30.638Z,1.50
2023-05-10T16:02:57.736Z,1.30
2023-05-10T16:05:24.963Z,1.20
2023-05-10T16:07:52.021Z,1.10
2023-05-10T16:10:19.167Z,1.20
2023-05-10T16:12:47.030Z,1.20
2023-05-10T16:15:14.215Z,1.20
2023-05-10T16:17:41.977Z,1.30
2023-05-10T16:20:09.755Z,1.10
2023-05-10T16:22:37.030Z,1.30
2023-05-10T16:25:04.412Z,1.40
2023-05-10T16:27:33.696Z,1.10
2023-05-10T16:30:00.878Z,1.70
2023-05-10T16:32:28.139Z,1.60
2023-05-10T16:34:55.605Z,1.50
2023-05-10T16:37:22.688Z,1.40
2023-05-10T16:39:49.727Z,1.00
2023-05-10T16:42:17.089Z,1.60
2023-05-10T16:44:44.170Z,1.40
2023-05-10T16:47:11.319Z,1.20
2023-05-10T16:49:38.457Z,1.30
2023-05-10T16:52:05.425Z,1.10
2023-05-10T16:54:32.516Z,0.80
2023-05-10T16:56:59.950Z,1.10
2023-05-10T16:59:27.334Z,1.00
2023-05-10T17:01:55.045Z,1.20
2023-05-10T17:04:22.144Z,1.10
2023-05-10T17:06:49.110Z,1.00
2023-05-10T17:09:16.177Z,1.10
2023-05-10T17:11:43.356Z,0.90
2023-05-10T17:14:10.481Z,1.10
2023-05-10T17:16:37.750Z,0.90
2023-05-10T17:19:05.220Z,0.80
2023-05-10T17:21:32.661Z,0.80
2023-05-10T17:23:59.826Z,1.10
2023-05-10T17:26:27.786Z,1.40
2023-05-10T17:31:22.335Z,1.10
2023-05-10T17:33:49.497Z,1.00
2023-05-10T17:36:16.609Z,1.00
2023-05-10T17:38:43.615Z,1.30
2023-05-10T17:41:10.683Z,1.10
2023-05-10T17:43:37.691Z,1.10
2023-05-10T17:46:04.859Z,1.10
2023-05-10T17:48:32.348Z,1.00
2023-05-10T17:50:59.380Z,1.00
2023-05-10T17:53:26.370Z,1.10
2023-05-10T17:55:54.094Z,0.80
2023-05-10T17:58:21.160Z,1.40
2023-05-10T18:00:48.328Z,1.30
2023-05-10T18:03:15.645Z,0.90
2023-05-10T18:05:42.679Z,1.60
2023-05-10T18:08:09.946Z,1.60
2023-05-10T18:10:40.032Z,1.70
2023-05-10T18:13:09.049Z,1.80
2023-05-10T18:15:36.318Z,1.90
2023-05-10T18:18:04.608Z,2.00
2023-05-10T18:20:32.059Z,1.90
2023-05-10T18:22:59.326Z,2.30
2023-05-10T18:25:26.794Z,2.50
2023-05-10T18:27:53.946Z,2.10
2023-05-10T18:30:20.924Z,2.10
2023-05-10T18:32:48.117Z,2.30
2023-05-10T18:35:15.883Z,2.90
2023-05-10T18:37:43.037Z,2.90
2023-05-10T18:40:11.322Z,3.40
2023-05-10T18:42:38.347Z,3.30
2023-05-10T18:45:06.516Z,3.50
2023-05-10T18:49:59.034Z,3.30
2023-05-10T18:52:26.088Z,3.70
2023-05-10T18:54:53.416Z,3.30
2023-05-10T18:57:21.404Z,3.50
2023-05-10T18:59:49.216Z,3.70
2023-05-10T19:02:16.515Z,3.50
2023-05-10T19:04:43.774Z,3.50
2023-05-10T19:07:11.360Z,3.50
2023-05-10T19:09:38.372Z,3.10
2023-05-10T19:12:05.690Z,3.00
2023-05-10T19:14:32.989Z,3.10
2023-05-10T19:17:00.018Z,3.30
2023-05-10T19:19:28.062Z,3.30
2023-05-10T19:21:54.996Z,3.80
2023-05-10T19:24:25.166Z,4.20
2023-05-10T19:26:52.629Z,4.30
2023-05-10T19:29:19.695Z,3.70
2023-05-10T19:31:47.356Z,4.10
2023-05-10T19:34:14.464Z,4.20
2023-05-10T19:36:41.528Z,3.90
2023-05-10T19:39:08.625Z,4.20
2023-05-10T19:41:35.865Z,4.70
2023-05-10T19:44:03.032Z,4.20
2023-05-10T19:46:31.327Z,4.80
2023-05-10T19:48:58.537Z,4.80
2023-05-10T19:51:25.724Z,4.60
2023-05-10T19:53:52.876Z,4.30
2023-05-10T19:56:19.899Z,4.80
2023-05-10T19:58:47.015Z,4.20
2023-05-10T20:01:14.073Z,4.80
2023-05-10T20:03:41.681Z,4.00
2023-05-10T20:06:09.106Z,4.20
2023-05-10T20:08:36.173Z,3.80
2023-05-10T20:11:04.043Z,4.00
2023-05-10T20:15:58.636Z,3.30
2023-05-10T20:18:26.827Z,3.20
2023-05-10T20:20:58.466Z,3.80
2023-05-10T20:23:25.820Z,3.00
2023-05-10T20:25:53.818Z,3.50
2023-05-10T20:30:52.454Z,3.30
2023-05-10T20:33:20.973Z,3.60
2023-05-10T20:35:47.990Z,3.40
2023-05-10T20:38:15.164Z,3.60
2023-05-10T20:40:42.924Z,4.10
2023-05-10T20:43:10.109Z,3.50
2023-05-10T20:45:37.927Z,3.60
2023-05-10T20:50:32.104Z,2.70
2023-05-10T20:53:00.736Z,3.00
2023-05-10T20:55:28.465Z,3.30
2023-05-10T20:57:55.454Z,3.40
2023-05-10T21:00:22.471Z,3.60
2023-05-10T21:02:49.730Z,3.00
2023-05-10T21:05:17.857Z,3.00
2023-05-10T21:07:44.979Z,2.80
2023-05-10T21:10:12.296Z,2.90
2023-05-10T21:12:39.332Z,3.00
2023-05-10T21:15:06.861Z,2.90
2023-05-10T21:17:34.169Z,2.80
2023-05-10T21:20:01.261Z,2.80
2023-05-10T21:22:28.280Z,2.60
2023-05-10T21:24:55.333Z,2.80
2023-05-10T21:27:22.351Z,2.60
2023-05-10T21:29:49.440Z,2.90
2023-05-10T21:32:16.756Z,3.20
2023-05-10T21:34:44.037Z,3.00
2023-05-10T21:37:11.119Z,2.60
2023-05-10T21:39:38.400Z,3.30
2023-05-10T21:42:05.461Z,3.30
2023-05-10T21:44:32.759Z,2.90
2023-05-10T21:46:59.754Z,3.30
2023-05-10T21:49:27.139Z,2.90
2023-05-10T21:51:54.134Z,3.10
2023-05-10T21:54:21.721Z,3.20
2023-05-10T21:56:49.256Z,3.00
2023-05-10T21:59:16.281Z,3.30
2023-05-10T22:01:44.088Z,3.10
2023-05-10T22:06:38.764Z,3.10
2023-05-10T22:09:05.910Z,2.90
2023-05-10T22:11:32.942Z,3.20
2023-05-10T22:13:59.971Z,3.00
2023-05-10T22:16:27.052Z,3.40
2023-05-10T22:18:54.674Z,3.70
2023-05-10T22:21:22.109Z,2.90
2023-05-10T22:23:49.113Z,3.30
2023-05-10T22:26:16.105Z,3.30
2023-05-10T22:28:43.817Z,3.50
2023-05-10T22:31:13.993Z,3.60
2023-05-10T22:33:40.997Z,3.20
2023-05-10T22:36:09.380Z,2.90
2023-05-10T22:38:36.380Z,3.10
2023-05-10T22:41:03.784Z,3.20
2023-05-10T22:43:30.782Z,3.30
2023-05-10T22:45:57.773Z,3.80
2023-05-10T22:48:24.800Z,3.70
2023-05-10T22:50:51.883Z,3.60
2023-05-10T22:53:18.988Z,4.00
2023-05-10T22:55:47.244Z,3.70
2023-05-10T22:58:14.265Z,3.70
2023-05-10T23:00:41.410Z,3.80
2023-05-10T23:03:08.595Z,3.40
2023-05-10T23:05:35.927Z,3.60
2023-05-10T23:08:03.177Z,4.20
2023-05-10T23:10:30.119Z,3.80
2023-05-10T23:12:57.177Z,4.60
2023-05-10T23:15:24.350Z,4.40
2023-05-10T23:17:51.565Z,4.10
2023-05-10T23:20:18.929Z,4.40
2023-05-10T23:22:46.293Z,4.20
2023-05-10T23:25:13.242Z,3.90
2023-05-10T23:27:40.420Z,4.90
2023-05-10T23:30:08.574Z,4.90
2023-05-10T23:32:36.017Z,4.50
2023-05-10T23:35:03.507Z,4.70
2023-05-10T23:37:30.692Z,4.30
2023-05-10T23:39:58.204Z,4.90
2023-05-10T23:42:25.612Z,4.40
2023-05-10T23:44:52.798Z,4.80
2023-05-10T23:47:19.871Z,5.00
2023-05-10T23:49:46.993Z,4.80
2023-05-10T23:52:14.199Z,4.80
2023-05-10T23:54:42.603Z,4.80
2023-05-10T23:57:10.394Z,4.70
2023-05-10T23:59:37.448Z,5.70
